Wind EuroAirport

Messzeit Windrichtung Windgeschwindigkeit [Knoten] Rückenwind Nordpiste [Knoten] METAR
2019-11-13 08:00 - 1 - LFSB 130700Z VRB01KT 9999 BKN019 02/02 Q1005 NOSIG
2019-11-13 07:30 - 0 - LFSB 130630Z 00000KT 9999 BKN017 BKN043 02/01 Q1005 NOSIG
2019-11-13 07:00 W 250° 3 - LFSB 130600Z 25003KT 9999 FEW015 SCT036 02/01 Q1004 TEMPO 3000 BR OVC003
2019-11-13 06:30 S 190° 3 - LFSB 130530Z 19003KT 9999 FEW016 SCT036 03/02 Q1004 NOSIG
2019-11-13 06:00 - 2 - LFSB 130500Z VRB02KT 9999 FEW016 SCT040 03/02 Q1004 NOSIG
2019-11-13 05:30 SW 210° 4 - LFSB 130430Z 21004KT 9999 BKN040 04/02 Q1004 NOSIG
2019-11-13 05:00 SW 240° 5 - LFSB 130400Z 24005KT 9999 BKN040 04/02 Q1004 NOSIG
2019-11-13 04:30 SW 240° 6 - LFSB 130330Z 24006KT 9999 BKN042 04/02 Q1004 NOSIG
2019-11-13 04:00 W 250° 6 - LFSB 130300Z AUTO 25006KT 9999 FEW044/// OVC056/// 04/02 Q1004 TEMPO BKN012
2019-11-13 03:30 W 250° 7 - LFSB 130230Z AUTO 25007KT 9999 FEW036/// OVC052/// 05/03 Q1003 TEMPO BKN012
2019-11-13 03:00 SW 230° 4 - LFSB 130200Z AUTO 23004KT 9999 FEW034/// SCT041/// OVC054/// 04/03 Q1003 NOSIG
2019-11-13 02:30 SW 240° 3 - LFSB 130130Z AUTO 24003KT 9999 SCT028/// BKN035/// BKN042/// 04/03 Q1004 NOSIG
2019-11-13 02:00 W 250° 9 - LFSB 130100Z AUTO 25009KT 6000 -RA FEW023/// BKN031/// BKN039/// 05/03 Q1004 NOSIG
2019-11-13 01:30 W 280° 4 2 LFSB 130030Z AUTO 28004KT 9999 FEW022/// SCT040/// OVC058/// 05/03 Q1004 NOSIG
2019-11-13 01:00 SW 240° 4 - LFSB 130000Z AUTO 24004KT 9999 FEW027/// SCT033/// BKN039/// 05/02 Q1004 NOSIG
2019-11-13 00:30 S 200°
(160°–240°)
3 - LFSB 122330Z AUTO 20003KT 160V240 9999 OVC027/// 05/02 Q1004 NOSIG
2019-11-13 00:00 S 200° 2 - LFSB 122300Z 20002KT 9999 BKN028 05/02 Q1004 NOSIG
2019-11-12 23:00 SO 150°
(120°–190°)
4 - LFSB 122200Z 15004KT 120V190 9999 OVC026 05/02 Q1004 NOSIG
2019-11-12 22:30 S 160°
(130°–200°)
5 - LFSB 122130Z 16005KT 130V200 9999 BKN029 05/02 Q1004 NOSIG
2019-11-12 22:00 S 160° 2 - LFSB 122100Z 16002KT 9999 BKN030 05/02 Q1004 NOSIG
2019-11-12 21:30 SO 130° 4 - LFSB 122030Z 13004KT 9999 BKN036 05/02 Q1004 NOSIG
2019-11-12 21:00 SO 140°
(100°–160°)
4 - LFSB 122000Z 14004KT 100V160 9999 BKN040 05/03 Q1004 NOSIG
2019-11-12 20:30 - 2 - LFSB 121930Z VRB02KT 9999 BKN043 04/02 Q1004 NOSIG
2019-11-12 20:00 W 250° 3 - LFSB 121900Z 25003KT 9999 BKN046 03/02 Q1005 NOSIG
2019-11-12 19:30 S 180° 2 - LFSB 121830Z 18002KT 9999 FEW033 BKN053 04/02 Q1005 NOSIG
2019-11-12 19:00 W 250° 2 - LFSB 121800Z 25002KT 9999 FEW033 SCT070 04/02 Q1005 NOSIG
2019-11-12 18:30 SW 240° 3 - LFSB 121730Z 24003KT 9999 FEW033 BKN070 05/02 Q1005 NOSIG
2019-11-12 18:00 W 280° 5 3 LFSB 121700Z 28005KT 9999 FEW043 BKN070 06/03 Q1006 NOSIG
2019-11-12 17:30 W 260° 4 1 LFSB 121630Z 26004KT 9999 FEW026 SCT040 BKN070 06/03 Q1006 NOSIG
2019-11-12 17:00 SW 230°
(200°–290°)
3 0–2 LFSB 121600Z 23003KT 200V290 9999 FEW026 SCT040 BKN070 06/03 Q1006 TEMPO 31015KT SHRA
2019-11-12 16:30 SW 240°
(200°–280°)
6 0–3 LFSB 121530Z 24006KT 200V280 9999 -SHRA FEW026 FEW033TCU BKN046 07/03 Q1006 TEMPO 31015KT 4000 SHRA
2019-11-12 16:00 W 290°
(260°–320°)
7 1–7 LFSB 121500Z 29007KT 260V320 9999 SCT040 BKN050 08/02 Q1006 TEMPO SHRA FEW040TCU
2019-11-12 15:30 W 260° 6 1 LFSB 121430Z 26006KT 9999 SCT040 BKN046 09/02 Q1006 TEMPO SHRA FEW040TCU
2019-11-12 15:00 W 250° 6 - LFSB 121400Z 25006KT 9999 SCT040 BKN046 09/01 Q1006 TEMPO FEW030TCU
2019-11-12 14:30 W 260°
(230°–290°)
8 0–5 LFSB 121330Z 26008KT 230V290 9999 SCT040 BKN046 09/02 Q1006 NOSIG
2019-11-12 14:00 W 250°
(230°–290°)
7 0–4 LFSB 121300Z 25007KT 230V290 9999 SCT036 BKN046 09/01 Q1006 NOSIG
2019-11-12 13:30 W 260°
(220°–280°)
7 0–4 LFSB 121230Z 26007KT 220V280 9999 SCT036 BKN043 09/01 Q1007 NOSIG
2019-11-12 13:00 W 250°
(220°–280°)
10 0–5 LFSB 121200Z 25010KT 220V280 9999 FEW033 BKN040 09/01 Q1007 NOSIG
2019-11-12 12:30 W 260°
(210°–300°)
7 0–5 LFSB 121130Z 26007KT 210V300 9999 FEW033 SCT040 10/02 Q1007 NOSIG
2019-11-12 12:00 SW 240°
(210°–280°)
11 0–6 LFSB 121100Z 24011KT 210V280 9999 FEW030 SCT036 10/01 Q1007 NOSIG
2019-11-12 11:30 SW 240°
(200°–280°)
10 0–5 LFSB 121030Z 24010KT 200V280 9999 FEW030 SCT036 09/01 Q1008 NOSIG
2019-11-12 11:00 SW 220°
(140°–280°)
6 0–3 LFSB 121000Z 22006KT 140V280 9999 FEW030 SCT036 09/02 Q1009 NOSIG
2019-11-12 10:30 S 160°
(130°–200°)
4 - LFSB 120930Z 16004KT 130V200 9999 FEW020 SCT033 08/01 Q1009 NOSIG
2019-11-12 10:00 SO 140°
(80°–190°)
4 - LFSB 120900Z 14004KT 080V190 9999 FEW020 07/02 Q1009 NOSIG
2019-11-12 09:30 - 2 - LFSB 120830Z VRB02KT 9999 FEW033 07/02 Q1009 NOSIG
2019-11-12 09:00 - 2 - LFSB 120800Z VRB02KT 9999 SCT033 05/03 Q1009 NOSIG
2019-11-12 08:30 O 110° 4 - LFSB 120730Z 11004KT 9999 FEW016 SCT033 03/01 Q1010 NOSIG